createdAt,value
2018-10-19T00:00:08.916Z,23.11
2018-10-19T00:00:40.514Z,23.12
2018-10-19T00:01:12.094Z,23.12
2018-10-19T00:01:43.694Z,23.10
2018-10-19T00:02:15.298Z,23.07
2018-10-19T00:02:46.889Z,23.07
2018-10-19T00:03:18.514Z,23.05
2018-10-19T00:03:50.104Z,23.04
2018-10-19T00:04:21.724Z,23.03
2018-10-19T00:04:53.332Z,23.02
2018-10-19T00:05:24.925Z,23.01
2018-10-19T00:05:56.528Z,23.01
2018-10-19T00:06:28.112Z,23.00
2018-10-19T00:06:59.700Z,23.00
2018-10-19T00:07:31.304Z,22.99
2018-10-19T00:08:02.914Z,22.98
2018-10-19T00:08:34.518Z,22.95
2018-10-19T00:09:06.156Z,22.96
2018-10-19T00:09:37.748Z,22.95
2018-10-19T00:10:09.323Z,22.93
2018-10-19T00:10:40.926Z,22.93
2018-10-19T00:11:12.517Z,22.93
2018-10-19T00:11:44.129Z,22.92
2018-10-19T00:12:15.730Z,22.92
2018-10-19T00:12:47.405Z,22.91
2018-10-19T00:13:18.956Z,22.91
2018-10-19T00:13:50.544Z,22.90
2018-10-19T00:14:22.155Z,22.88
2018-10-19T00:14:53.776Z,22.88
2018-10-19T00:15:25.367Z,22.88
2018-10-19T00:15:56.965Z,22.86
2018-10-19T00:16:28.556Z,22.67
2018-10-19T00:17:00.152Z,22.84
2018-10-19T00:17:31.776Z,22.84
2018-10-19T00:18:03.364Z,22.83
2018-10-19T00:18:34.965Z,22.83
2018-10-19T00:19:06.570Z,22.82
2018-10-19T00:19:38.179Z,22.81
2018-10-19T00:20:09.768Z,22.81
2018-10-19T00:20:41.347Z,22.81
2018-10-19T00:21:13.005Z,22.80
2018-10-19T00:21:44.585Z,22.80
2018-10-19T00:22:16.176Z,22.80
2018-10-19T00:22:47.773Z,22.79
2018-10-19T00:23:19.361Z,22.78
2018-10-19T00:23:50.957Z,22.77
2018-10-19T00:24:22.582Z,22.76
2018-10-19T00:24:54.200Z,22.76
2018-10-19T00:25:25.788Z,22.74
2018-10-19T00:25:57.384Z,22.75
2018-10-19T00:26:28.980Z,22.75
2018-10-19T00:27:00.613Z,22.74
2018-10-19T00:27:32.177Z,22.74
2018-10-19T00:28:03.980Z,22.72
2018-10-19T00:28:35.560Z,22.72
2018-10-19T00:29:07.162Z,22.71
2018-10-19T00:29:38.789Z,22.70
2018-10-19T00:30:10.400Z,22.70
2018-10-19T00:30:41.998Z,22.69
2018-10-19T00:31:13.607Z,22.69
2018-10-19T00:31:45.197Z,22.69
2018-10-19T00:32:16.788Z,22.65
2018-10-19T00:32:48.391Z,22.68
2018-10-19T00:33:19.984Z,22.68
2018-10-19T00:33:51.573Z,22.67
2018-10-19T00:34:23.155Z,22.67
2018-10-19T00:34:54.775Z,22.66
2018-10-19T00:35:26.402Z,22.65
2018-10-19T00:35:58.006Z,22.65
2018-10-19T00:36:29.600Z,22.65
2018-10-19T00:37:01.203Z,22.64
2018-10-19T00:37:32.806Z,22.64
2018-10-19T00:38:04.419Z,22.63
2018-10-19T00:38:36.021Z,22.63
2018-10-19T00:39:07.688Z,22.64
2018-10-19T00:39:39.285Z,22.64
2018-10-19T00:40:10.882Z,22.64
2018-10-19T00:40:42.486Z,22.63
2018-10-19T00:41:14.156Z,22.56
2018-10-19T00:41:45.683Z,22.62
2018-10-19T00:42:17.296Z,22.55
2018-10-19T00:42:48.898Z,22.61
2018-10-19T00:43:20.503Z,22.60
2018-10-19T00:43:52.087Z,22.60
2018-10-19T00:44:23.690Z,22.59
2018-10-19T00:44:55.335Z,22.58
2018-10-19T00:45:26.942Z,22.57
2018-10-19T00:45:58.536Z,22.57
2018-10-19T00:46:30.136Z,22.56
2018-10-19T00:47:01.824Z,22.55
2018-10-19T00:47:33.369Z,22.55
2018-10-19T00:48:04.960Z,22.55
2018-10-19T00:48:36.551Z,22.55
2018-10-19T00:49:08.152Z,22.56
2018-10-19T00:49:39.773Z,22.58
2018-10-19T00:50:11.473Z,22.59
2018-10-19T00:50:43.050Z,22.60
2018-10-19T00:51:14.656Z,22.60
2018-10-19T00:51:46.274Z,22.61
2018-10-19T00:52:17.882Z,22.61
2018-10-19T00:52:49.462Z,22.62
2018-10-19T00:53:21.051Z,22.62
2018-10-19T00:53:52.655Z,22.61
2018-10-19T00:54:24.244Z,22.62
2018-10-19T00:54:55.864Z,22.61
2018-10-19T00:55:27.465Z,22.60
2018-10-19T00:55:59.054Z,22.62
2018-10-19T00:56:30.653Z,22.62
2018-10-19T00:57:02.287Z,22.61
2018-10-19T00:57:33.884Z,22.61
2018-10-19T00:58:05.476Z,22.61
2018-10-19T00:58:37.072Z,22.60
2018-10-19T00:59:08.704Z,22.60
2018-10-19T00:59:40.284Z,22.60
2018-10-19T01:00:11.900Z,22.60
2018-10-19T01:00:43.507Z,22.60
2018-10-19T01:01:15.105Z,22.60
2018-10-19T01:01:46.710Z,22.60
2018-10-19T01:02:18.308Z,22.59
2018-10-19T01:02:49.900Z,22.58
2018-10-19T01:03:21.489Z,22.58
2018-10-19T01:03:53.075Z,22.58
2018-10-19T01:04:24.660Z,22.58
2018-10-19T01:04:56.346Z,22.57
2018-10-19T01:05:27.906Z,22.58
2018-10-19T01:05:59.520Z,22.42
2018-10-19T01:06:31.117Z,22.57
2018-10-19T01:07:02.714Z,22.56
2018-10-19T01:07:34.317Z,22.57
2018-10-19T01:08:05.896Z,22.56
2018-10-19T01:08:37.489Z,22.56
2018-10-19T01:09:09.116Z,22.56
2018-10-19T01:09:40.707Z,22.56
2018-10-19T01:10:12.333Z,22.56
2018-10-19T01:10:43.947Z,22.56
2018-10-19T01:11:15.602Z,22.55
2018-10-19T01:11:47.170Z,22.55
2018-10-19T01:12:50.041Z,22.54
2018-10-19T01:13:21.647Z,22.22
2018-10-19T01:13:53.240Z,22.51
2018-10-19T01:14:24.833Z,22.49
2018-10-19T01:14:56.427Z,22.49
2018-10-19T01:15:28.076Z,22.48
2018-10-19T01:15:59.666Z,22.47
2018-10-19T01:16:31.323Z,22.47
2018-10-19T01:17:02.971Z,22.46
2018-10-19T01:17:34.524Z,22.46
2018-10-19T01:18:06.105Z,22.46
2018-10-19T01:18:37.705Z,22.43
2018-10-19T01:19:09.307Z,22.45
2018-10-19T01:19:40.923Z,22.44
2018-10-19T01:20:12.555Z,22.43
2018-10-19T01:20:44.145Z,22.42
2018-10-19T01:21:15.862Z,22.42
2018-10-19T01:21:47.372Z,22.40
2018-10-19T01:22:18.956Z,22.40
2018-10-19T01:22:50.535Z,22.39
2018-10-19T01:23:22.128Z,22.39
2018-10-19T01:23:53.704Z,22.37
2018-10-19T01:24:25.315Z,22.37
2018-10-19T01:24:56.922Z,22.36
2018-10-19T01:25:28.545Z,22.35
2018-10-19T01:26:00.146Z,22.35
2018-10-19T01:26:31.740Z,22.35
2018-10-19T01:27:03.402Z,22.34
2018-10-19T01:27:34.969Z,22.34
2018-10-19T01:28:06.570Z,22.32
2018-10-19T01:28:38.164Z,22.30
2018-10-19T01:29:09.810Z,22.31
2018-10-19T01:29:41.375Z,22.31
2018-10-19T01:30:13.028Z,22.30
2018-10-19T01:30:44.638Z,22.30
2018-10-19T01:31:16.228Z,22.30
2018-10-19T01:31:47.824Z,22.29
2018-10-19T01:32:19.417Z,22.28
2018-10-19T01:32:51.023Z,22.29
2018-10-19T01:33:22.602Z,22.28
2018-10-19T01:33:54.179Z,22.27
2018-10-19T01:34:25.765Z,22.28
2018-10-19T01:34:57.381Z,22.27
2018-10-19T01:35:28.964Z,22.27
2018-10-19T01:36:00.557Z,22.26
2018-10-19T01:36:32.158Z,22.07
2018-10-19T01:37:03.752Z,22.26
2018-10-19T01:37:35.360Z,22.25
2018-10-19T01:38:06.953Z,22.25
2018-10-19T01:38:38.545Z,22.24
2018-10-19T01:39:10.176Z,22.24
2018-10-19T01:39:41.736Z,22.24
2018-10-19T01:40:13.321Z,22.24
2018-10-19T01:40:44.927Z,22.24
2018-10-19T01:41:16.610Z,22.23
2018-10-19T01:41:48.161Z,22.23
2018-10-19T01:42:19.752Z,22.23
2018-10-19T01:42:51.355Z,22.23
2018-10-19T01:43:22.953Z,22.22
2018-10-19T01:43:54.534Z,22.12
2018-10-19T01:44:26.130Z,22.23
2018-10-19T01:44:57.772Z,22.22
2018-10-19T01:45:29.392Z,22.22
2018-10-19T01:46:00.981Z,22.21
2018-10-19T01:46:32.573Z,22.21
2018-10-19T01:47:04.241Z,22.21
2018-10-19T01:47:35.802Z,22.21
2018-10-19T01:48:07.406Z,22.24
2018-10-19T01:48:38.996Z,22.25
2018-10-19T01:49:10.605Z,22.26
2018-10-19T01:49:42.197Z,22.28
2018-10-19T01:50:13.797Z,22.29
2018-10-19T01:50:45.431Z,22.29
2018-10-19T01:51:17.052Z,22.30
2018-10-19T01:51:48.671Z,22.31
2018-10-19T01:52:20.261Z,22.32
2018-10-19T01:52:51.872Z,22.31
2018-10-19T01:53:23.487Z,22.31
2018-10-19T01:53:55.076Z,22.32
2018-10-19T01:54:26.673Z,22.31
2018-10-19T01:54:58.284Z,22.33
2018-10-19T01:55:29.942Z,22.32
2018-10-19T01:56:01.523Z,22.32
2018-10-19T01:56:33.125Z,22.32
2018-10-19T01:57:04.813Z,22.31
2018-10-19T01:57:36.375Z,22.32
2018-10-19T01:58:07.964Z,22.32
2018-10-19T01:58:39.566Z,22.32
2018-10-19T01:59:11.272Z,22.32
2018-10-19T01:59:42.783Z,22.32
2018-10-19T02:00:14.373Z,22.31
2018-10-19T02:00:46.010Z,22.31
2018-10-19T02:01:17.588Z,22.31
2018-10-19T02:01:49.176Z,22.31
2018-10-19T02:02:20.782Z,22.31
2018-10-19T02:02:52.390Z,22.31
2018-10-19T02:03:23.999Z,22.31
2018-10-19T02:03:55.611Z,22.30
2018-10-19T02:04:27.214Z,22.30
2018-10-19T02:04:58.842Z,22.29
2018-10-19T02:05:30.441Z,22.29
2018-10-19T02:06:02.065Z,22.27
2018-10-19T02:06:33.696Z,22.27
2018-10-19T02:07:05.298Z,22.26
2018-10-19T02:07:36.902Z,22.26
2018-10-19T02:08:08.506Z,22.26
2018-10-19T02:08:40.101Z,22.25
2018-10-19T02:09:11.719Z,22.24
2018-10-19T02:09:43.328Z,22.24
2018-10-19T02:10:14.934Z,22.24
2018-10-19T02:10:46.552Z,22.23
2018-10-19T02:11:18.141Z,22.22
2018-10-19T02:11:49.751Z,22.22
2018-10-19T02:12:21.344Z,22.23
2018-10-19T02:12:52.932Z,22.22
2018-10-19T02:13:24.529Z,22.22
2018-10-19T02:13:56.135Z,22.22
2018-10-19T02:14:27.746Z,22.20
2018-10-19T02:14:59.389Z,22.20
2018-10-19T02:15:30.988Z,22.20
2018-10-19T02:16:02.619Z,22.20
2018-10-19T02:16:34.209Z,22.20
2018-10-19T02:17:05.816Z,22.19
2018-10-19T02:17:37.417Z,22.19
2018-10-19T02:18:09.023Z,22.03
2018-10-19T02:18:40.624Z,22.19
2018-10-19T02:19:12.199Z,22.19
2018-10-19T02:19:43.782Z,22.19
2018-10-19T02:20:15.384Z,22.18
2018-10-19T02:20:47.033Z,22.18
2018-10-19T02:21:18.620Z,22.18
2018-10-19T02:21:50.222Z,22.18
2018-10-19T02:22:21.820Z,22.18
2018-10-19T02:22:53.436Z,22.07
2018-10-19T02:23:25.038Z,22.17
2018-10-19T02:23:56.632Z,22.17
2018-10-19T02:24:28.235Z,22.18
2018-10-19T02:24:59.839Z,22.19
2018-10-19T02:25:31.451Z,22.20
2018-10-19T02:26:03.106Z,22.22
2018-10-19T02:26:34.698Z,22.23
2018-10-19T02:27:06.308Z,22.23
2018-10-19T02:27:37.919Z,22.23
2018-10-19T02:28:09.522Z,22.23
2018-10-19T02:28:41.117Z,22.24
2018-10-19T02:29:12.837Z,22.23
2018-10-19T02:29:44.346Z,22.23
2018-10-19T02:30:15.937Z,22.23
2018-10-19T02:30:47.547Z,22.22
2018-10-19T02:31:19.164Z,22.22
2018-10-19T02:31:50.753Z,22.21
2018-10-19T02:32:22.368Z,22.21
2018-10-19T02:32:54.048Z,22.20
2018-10-19T02:33:25.622Z,22.20
2018-10-19T02:33:57.212Z,22.19
2018-10-19T02:34:28.818Z,22.19
2018-10-19T02:35:00.479Z,22.19
2018-10-19T02:35:32.063Z,22.19
2018-10-19T02:36:03.696Z,22.18
2018-10-19T02:36:35.288Z,22.18
2018-10-19T02:37:06.870Z,22.17
2018-10-19T02:37:38.582Z,22.18
2018-10-19T02:38:10.170Z,22.17
2018-10-19T02:38:41.757Z,22.17
2018-10-19T02:39:13.420Z,22.17
2018-10-19T02:39:44.973Z,22.17
2018-10-19T02:40:16.564Z,22.17
2018-10-19T02:40:48.166Z,22.17
2018-10-19T02:41:19.793Z,22.17
2018-10-19T02:41:51.401Z,22.16
2018-10-19T02:42:22.992Z,22.16
2018-10-19T02:42:54.596Z,22.16
2018-10-19T02:43:26.192Z,22.16
2018-10-19T02:43:57.784Z,22.16
2018-10-19T02:44:29.380Z,22.17
2018-10-19T02:45:01.019Z,22.21
2018-10-19T02:45:32.624Z,22.23
2018-10-19T02:46:04.231Z,22.26
2018-10-19T02:46:35.834Z,22.27
2018-10-19T02:47:07.493Z,22.29
2018-10-19T02:47:39.061Z,22.31
2018-10-19T02:48:10.643Z,22.34
2018-10-19T02:48:42.237Z,22.34
2018-10-19T02:49:13.819Z,22.34
2018-10-19T02:49:45.408Z,22.35
2018-10-19T02:50:17.001Z,22.36
2018-10-19T02:50:48.579Z,22.36
2018-10-19T02:51:20.395Z,22.37
2018-10-19T02:51:51.807Z,22.37
2018-10-19T02:52:23.396Z,22.37
2018-10-19T02:52:54.980Z,22.37
2018-10-19T02:53:26.580Z,22.37
2018-10-19T02:53:58.162Z,22.36
2018-10-19T02:54:29.768Z,22.36
2018-10-19T02:55:01.361Z,22.36
2018-10-19T02:55:32.966Z,22.35
2018-10-19T02:56:04.564Z,22.36
2018-10-19T02:56:36.190Z,22.36
2018-10-19T02:57:07.791Z,22.37
2018-10-19T02:57:39.395Z,22.36
2018-10-19T02:58:11.010Z,22.36
2018-10-19T02:58:42.590Z,22.35
2018-10-19T02:59:14.233Z,22.34
2018-10-19T02:59:45.832Z,22.20
2018-10-19T03:00:17.434Z,22.36
2018-10-19T03:00:49.041Z,22.33
2018-10-19T03:01:20.668Z,22.30
2018-10-19T03:01:52.279Z,22.26
2018-10-19T03:02:23.907Z,22.23
2018-10-19T03:02:55.507Z,22.18
2018-10-19T03:03:27.116Z,22.12
2018-10-19T03:03:58.723Z,22.10
2018-10-19T03:04:30.329Z,22.10
2018-10-19T03:05:02.005Z,21.92
2018-10-19T03:05:33.594Z,22.09
2018-10-19T03:06:05.186Z,22.09
2018-10-19T03:06:36.838Z,22.10
2018-10-19T03:07:08.427Z,22.10
2018-10-19T03:07:40.021Z,22.11
2018-10-19T03:08:11.627Z,22.11
2018-10-19T03:08:43.218Z,22.12
2018-10-19T03:09:14.859Z,22.13
2018-10-19T03:09:46.455Z,22.13
2018-10-19T03:10:18.035Z,21.94
2018-10-19T03:10:49.628Z,22.13
2018-10-19T03:11:21.275Z,22.12
2018-10-19T03:11:52.912Z,22.11
2018-10-19T03:12:24.523Z,22.11
2018-10-19T03:12:56.130Z,22.10
2018-10-19T03:13:27.721Z,22.07
2018-10-19T03:13:59.316Z,22.11
2018-10-19T03:14:30.920Z,22.10
2018-10-19T03:15:02.559Z,22.09
2018-10-19T03:15:34.153Z,21.91
2018-10-19T03:16:05.750Z,22.08
2018-10-19T03:16:37.355Z,22.08
2018-10-19T03:17:08.986Z,22.07
2018-10-19T03:17:40.573Z,22.06
2018-10-19T03:18:12.178Z,22.07
2018-10-19T03:18:43.786Z,22.07
2018-10-19T03:19:15.376Z,22.06
2018-10-19T03:19:46.984Z,22.07
2018-10-19T03:20:18.589Z,22.08
2018-10-19T03:20:50.184Z,22.09
2018-10-19T03:21:21.762Z,22.11
2018-10-19T03:21:53.376Z,22.13
2018-10-19T03:22:24.959Z,22.13
2018-10-19T03:22:56.592Z,22.14
2018-10-19T03:23:28.177Z,22.14
2018-10-19T03:23:59.773Z,22.16
2018-10-19T03:24:31.368Z,22.16
2018-10-19T03:25:02.972Z,22.16
2018-10-19T03:25:34.584Z,22.16
2018-10-19T03:26:06.199Z,22.18
2018-10-19T03:26:38.826Z,22.19
2018-10-19T03:27:10.465Z,22.20
2018-10-19T03:27:42.035Z,22.19
2018-10-19T03:28:13.624Z,22.20
2018-10-19T03:28:45.219Z,22.19
2018-10-19T03:29:16.824Z,22.19
2018-10-19T03:29:48.446Z,22.18
2018-10-19T03:30:20.034Z,22.19
2018-10-19T03:30:51.662Z,22.19
2018-10-19T03:31:23.247Z,22.19
2018-10-19T03:31:54.822Z,22.19
2018-10-19T03:32:26.413Z,22.19
2018-10-19T03:32:58.027Z,22.21
2018-10-19T03:33:29.625Z,22.20
2018-10-19T03:34:01.232Z,22.19
2018-10-19T03:34:32.825Z,22.18
2018-10-19T03:35:04.464Z,22.18
2018-10-19T03:35:36.048Z,22.19
2018-10-19T03:36:07.626Z,22.18
2018-10-19T03:36:39.253Z,22.18
2018-10-19T03:37:10.844Z,22.17
2018-10-19T03:37:42.437Z,22.18
2018-10-19T03:38:14.047Z,22.19
2018-10-19T03:38:45.656Z,22.20
2018-10-19T03:39:17.372Z,22.20
2018-10-19T03:39:48.880Z,22.20
2018-10-19T03:40:20.468Z,22.20
2018-10-19T03:40:52.062Z,22.21
2018-10-19T03:41:23.656Z,22.21
2018-10-19T03:41:55.248Z,22.20
2018-10-19T03:42:26.840Z,22.21
2018-10-19T03:42:58.437Z,22.19
2018-10-19T03:43:30.042Z,22.03
2018-10-19T03:44:01.646Z,22.19
2018-10-19T03:44:33.255Z,22.19
2018-10-19T03:45:04.913Z,22.19
2018-10-19T03:45:36.500Z,22.19
2018-10-19T03:46:08.102Z,22.18
2018-10-19T03:46:39.705Z,22.19
2018-10-19T03:47:11.335Z,22.19
2018-10-19T03:47:42.937Z,22.18
2018-10-19T03:48:14.540Z,22.18
2018-10-19T03:48:46.136Z,22.19
2018-10-19T03:49:17.813Z,22.20
2018-10-19T03:49:49.335Z,22.19
2018-10-19T03:50:20.930Z,22.19
2018-10-19T03:50:52.511Z,22.18
2018-10-19T03:51:24.109Z,22.18
2018-10-19T03:51:55.720Z,22.17
2018-10-19T03:52:27.319Z,22.17
2018-10-19T03:52:58.927Z,22.17
2018-10-19T03:53:30.553Z,22.16
2018-10-19T03:54:02.159Z,22.15
2018-10-19T03:54:33.772Z,22.14
2018-10-19T03:55:05.375Z,22.14
2018-10-19T03:55:36.978Z,22.14
2018-10-19T03:56:08.572Z,22.14
2018-10-19T03:56:40.180Z,22.16
2018-10-19T03:57:11.873Z,22.16
2018-10-19T03:57:43.429Z,22.17
2018-10-19T03:58:15.037Z,22.18
2018-10-19T03:58:46.629Z,22.18
2018-10-19T03:59:18.300Z,22.18
2018-10-19T03:59:49.835Z,22.18
2018-10-19T04:00:21.416Z,22.17
2018-10-19T04:00:53.008Z,22.16
2018-10-19T04:01:24.626Z,22.16
2018-10-19T04:01:56.255Z,22.15
2018-10-19T04:02:27.848Z,22.14
2018-10-19T04:02:59.497Z,22.14
2018-10-19T04:03:31.128Z,22.13
2018-10-19T04:04:02.729Z,22.13
2018-10-19T04:04:34.348Z,22.12
2018-10-19T04:05:05.972Z,22.12
2018-10-19T04:05:37.556Z,22.11
2018-10-19T04:06:09.148Z,22.11
2018-10-19T04:06:40.745Z,22.10
2018-10-19T04:07:12.375Z,22.10
2018-10-19T04:07:43.969Z,22.09
2018-10-19T04:08:15.579Z,22.09
2018-10-19T04:08:47.158Z,22.01
2018-10-19T04:09:18.823Z,22.09
2018-10-19T04:09:50.398Z,22.09
2018-10-19T04:10:22.003Z,22.09
2018-10-19T04:10:53.642Z,22.09
2018-10-19T04:11:25.266Z,21.92
2018-10-19T04:11:56.902Z,22.08
2018-10-19T04:12:28.535Z,22.09
2018-10-19T04:13:00.142Z,22.06
2018-10-19T04:13:31.746Z,22.06
2018-10-19T04:14:03.354Z,22.05
2018-10-19T04:14:34.957Z,22.04
2018-10-19T04:15:06.587Z,22.04
2018-10-19T04:15:38.185Z,22.04
2018-10-19T04:16:09.768Z,22.05
2018-10-19T04:16:41.374Z,21.90
2018-10-19T04:17:13.072Z,22.08
2018-10-19T04:17:44.633Z,22.08
2018-10-19T04:18:16.247Z,22.08
2018-10-19T04:18:47.844Z,22.08
2018-10-19T04:19:19.451Z,21.90
2018-10-19T04:19:52.025Z,22.08
2018-10-19T04:20:23.633Z,22.07
2018-10-19T04:20:55.242Z,22.07
2018-10-19T04:21:26.862Z,22.06
2018-10-19T04:21:58.456Z,22.07
2018-10-19T04:22:30.072Z,22.06
2018-10-19T04:23:01.683Z,22.06
2018-10-19T04:23:33.305Z,22.06
2018-10-19T04:24:04.896Z,22.05
2018-10-19T04:24:36.488Z,22.05
2018-10-19T04:25:08.092Z,22.06
2018-10-19T04:25:39.703Z,22.04
2018-10-19T04:26:11.329Z,22.04
2018-10-19T04:26:42.921Z,22.04
2018-10-19T04:27:14.647Z,22.04
2018-10-19T04:27:46.223Z,22.04
2018-10-19T04:28:17.816Z,22.04
2018-10-19T04:28:49.404Z,22.03
2018-10-19T04:29:21.016Z,22.04
2018-10-19T04:29:52.611Z,22.03
2018-10-19T04:30:24.204Z,22.05
2018-10-19T04:30:55.800Z,22.06
2018-10-19T04:31:27.382Z,22.05
2018-10-19T04:31:58.972Z,22.06
2018-10-19T04:32:30.582Z,22.06
2018-10-19T04:33:02.239Z,22.07
2018-10-19T04:33:33.802Z,22.07
2018-10-19T04:34:05.393Z,22.06
2018-10-19T04:34:36.988Z,22.06
2018-10-19T04:35:08.583Z,22.07
2018-10-19T04:35:40.203Z,22.07
2018-10-19T04:36:11.827Z,22.06
2018-10-19T04:36:43.418Z,22.06
2018-10-19T04:37:15.033Z,22.06
2018-10-19T04:37:46.634Z,22.06
2018-10-19T04:38:18.225Z,22.05
2018-10-19T04:38:49.815Z,21.87
2018-10-19T04:39:21.416Z,22.05
2018-10-19T04:39:53.022Z,22.04
2018-10-19T04:40:24.602Z,22.05
2018-10-19T04:40:56.245Z,22.05
2018-10-19T04:41:27.863Z,22.05
2018-10-19T04:41:59.505Z,22.05
2018-10-19T04:42:31.119Z,22.04
2018-10-19T04:43:02.758Z,22.04
2018-10-19T04:43:34.336Z,22.04
2018-10-19T04:44:05.919Z,22.04
2018-10-19T04:44:37.498Z,22.04
2018-10-19T04:45:09.128Z,22.04
2018-10-19T04:45:40.724Z,22.04
2018-10-19T04:46:12.320Z,22.04
2018-10-19T04:46:43.974Z,22.04
2018-10-19T04:47:15.623Z,22.04
2018-10-19T04:47:47.284Z,22.04
2018-10-19T04:48:18.821Z,22.04
2018-10-19T04:48:50.414Z,22.04
2018-10-19T04:49:22.014Z,22.04
2018-10-19T04:49:53.605Z,22.04
2018-10-19T04:50:25.209Z,22.03
2018-10-19T04:50:56.880Z,22.04
2018-10-19T04:51:28.441Z,22.04
2018-10-19T04:52:00.043Z,22.03
2018-10-19T04:52:31.664Z,22.04
2018-10-19T04:53:03.296Z,22.05
2018-10-19T04:53:34.951Z,22.07
2018-10-19T04:54:06.510Z,22.07
2018-10-19T04:54:38.119Z,22.07
2018-10-19T04:55:09.724Z,22.07
2018-10-19T04:55:41.302Z,22.08
2018-10-19T04:56:12.896Z,22.07
2018-10-19T04:56:44.496Z,22.07
2018-10-19T04:57:16.080Z,22.07
2018-10-19T04:57:47.711Z,22.06
2018-10-19T04:58:19.315Z,22.06
2018-10-19T04:58:50.911Z,22.06
2018-10-19T04:59:22.509Z,22.06
2018-10-19T04:59:54.114Z,22.06
2018-10-19T05:00:25.709Z,22.05
2018-10-19T05:00:57.315Z,22.05
2018-10-19T05:01:28.919Z,22.05
2018-10-19T05:02:00.513Z,22.03
2018-10-19T05:02:32.229Z,22.05
2018-10-19T05:03:03.848Z,22.04
2018-10-19T05:03:35.444Z,22.05
2018-10-19T05:04:07.024Z,22.05
2018-10-19T05:04:38.647Z,22.05
2018-10-19T05:05:10.367Z,22.05
2018-10-19T05:05:41.913Z,22.05
2018-10-19T05:06:13.663Z,22.05
2018-10-19T05:06:45.276Z,22.05
2018-10-19T05:07:16.790Z,22.04
2018-10-19T05:07:48.413Z,21.86
2018-10-19T05:08:20.083Z,22.04
2018-10-19T05:08:51.639Z,22.05
2018-10-19T05:09:23.228Z,22.04
2018-10-19T05:09:54.829Z,22.04
2018-10-19T05:10:26.428Z,22.04
2018-10-19T05:10:58.078Z,22.04
2018-10-19T05:11:29.633Z,22.03
2018-10-19T05:12:01.228Z,22.02
2018-10-19T05:12:32.869Z,22.02
2018-10-19T05:13:04.509Z,22.01
2018-10-19T05:13:36.122Z,22.00
2018-10-19T05:14:07.785Z,22.00
2018-10-19T05:14:39.332Z,21.99
2018-10-19T05:15:10.940Z,22.00
2018-10-19T05:15:42.547Z,22.00
2018-10-19T05:16:14.155Z,21.99
2018-10-19T05:16:45.752Z,21.99
2018-10-19T05:17:17.351Z,21.99
2018-10-19T05:17:48.988Z,22.00
2018-10-19T05:18:20.606Z,22.02
2018-10-19T05:18:52.209Z,22.03
2018-10-19T05:19:23.811Z,22.03
2018-10-19T05:19:55.451Z,22.03
2018-10-19T05:20:27.058Z,22.03
2018-10-19T05:20:58.635Z,21.84
2018-10-19T05:21:30.262Z,22.03
2018-10-19T05:22:01.859Z,22.03
2018-10-19T05:22:33.463Z,22.04
2018-10-19T05:23:05.146Z,22.06
2018-10-19T05:23:36.695Z,22.07
2018-10-19T05:24:08.288Z,22.09
2018-10-19T05:24:39.903Z,22.10
2018-10-19T05:25:11.507Z,22.11
2018-10-19T05:25:43.100Z,22.11
2018-10-19T05:26:14.832Z,22.12
2018-10-19T05:26:46.346Z,22.11
2018-10-19T05:27:17.951Z,22.11
2018-10-19T05:27:49.588Z,22.12
2018-10-19T05:28:21.192Z,22.11
2018-10-19T05:28:52.835Z,22.12
2018-10-19T05:29:24.413Z,22.11
2018-10-19T05:29:56.009Z,22.11
2018-10-19T05:30:27.610Z,22.11
2018-10-19T05:30:59.224Z,22.10
2018-10-19T05:31:30.807Z,22.11
2018-10-19T05:32:02.433Z,22.11
2018-10-19T05:32:34.026Z,22.11
2018-10-19T05:33:05.660Z,22.10
2018-10-19T05:33:37.268Z,22.10
2018-10-19T05:34:08.855Z,22.10
2018-10-19T05:34:40.473Z,22.09
2018-10-19T05:35:12.177Z,22.09
2018-10-19T05:35:43.701Z,22.08
2018-10-19T05:36:15.288Z,22.09
2018-10-19T05:36:46.880Z,22.10
2018-10-19T05:37:19.513Z,22.09
2018-10-19T05:37:51.119Z,22.09
2018-10-19T05:38:22.712Z,22.08
2018-10-19T05:38:54.319Z,22.09
2018-10-19T05:39:25.908Z,22.08
2018-10-19T05:39:57.517Z,22.07
2018-10-19T05:40:29.118Z,22.08
2018-10-19T05:41:00.723Z,22.08
2018-10-19T05:41:32.314Z,22.08
2018-10-19T05:42:03.890Z,22.07
2018-10-19T05:42:35.518Z,22.07
2018-10-19T05:43:07.122Z,22.07
2018-10-19T05:43:38.787Z,22.05
2018-10-19T05:44:10.380Z,22.09
2018-10-19T05:44:41.978Z,22.10
2018-10-19T05:45:13.575Z,22.09
2018-10-19T05:45:45.178Z,22.08
2018-10-19T05:46:16.769Z,22.09
2018-10-19T05:46:48.378Z,22.09
2018-10-19T05:47:19.972Z,22.07
2018-10-19T05:47:51.551Z,22.07
2018-10-19T05:48:23.144Z,22.07
2018-10-19T05:48:54.722Z,22.07
2018-10-19T05:49:26.319Z,22.07
2018-10-19T05:49:57.921Z,22.07
2018-10-19T05:50:29.534Z,22.07
2018-10-19T05:51:01.133Z,22.07
2018-10-19T05:51:32.751Z,22.06
2018-10-19T05:52:04.398Z,22.06
2018-10-19T05:52:35.984Z,22.05
2018-10-19T05:53:07.652Z,22.05
2018-10-19T05:53:39.224Z,22.04
2018-10-19T05:54:10.822Z,22.05
2018-10-19T05:54:42.412Z,22.05
2018-10-19T05:55:14.009Z,22.07
2018-10-19T05:55:45.601Z,22.08
2018-10-19T05:56:17.297Z,22.08
2018-10-19T05:56:48.824Z,22.08
2018-10-19T05:57:20.425Z,22.08
2018-10-19T05:57:52.039Z,22.08
2018-10-19T05:58:23.643Z,22.01
2018-10-19T05:58:55.250Z,22.09
2018-10-19T05:59:26.864Z,22.09
2018-10-19T05:59:58.472Z,22.09
2018-10-19T06:00:30.079Z,22.10
2018-10-19T06:01:01.673Z,22.09
2018-10-19T06:01:33.260Z,22.07
2018-10-19T06:02:04.941Z,22.09
2018-10-19T06:02:36.587Z,22.08
2018-10-19T06:03:08.126Z,22.07
2018-10-19T06:03:39.754Z,22.08
2018-10-19T06:04:11.380Z,22.07
2018-10-19T06:04:42.986Z,22.07
2018-10-19T06:05:14.662Z,22.07
2018-10-19T06:05:46.220Z,22.07
2018-10-19T06:06:17.812Z,22.07
2018-10-19T06:06:49.417Z,22.06
2018-10-19T06:07:21.022Z,22.06
2018-10-19T06:07:52.615Z,22.05
2018-10-19T06:08:24.240Z,22.05
2018-10-19T06:08:55.819Z,22.05
2018-10-19T06:09:27.423Z,22.05
2018-10-19T06:09:59.017Z,22.05
2018-10-19T06:10:30.623Z,22.05
2018-10-19T06:11:02.340Z,22.06
2018-10-19T06:11:33.944Z,22.06
2018-10-19T06:12:05.548Z,22.06
2018-10-19T06:12:37.140Z,22.06
2018-10-19T06:13:08.736Z,22.05
2018-10-19T06:13:40.404Z,22.05
2018-10-19T06:14:12.050Z,22.07
2018-10-19T06:14:43.642Z,22.07
2018-10-19T06:15:15.250Z,22.06
2018-10-19T06:15:46.844Z,22.07
2018-10-19T06:16:18.448Z,22.07
2018-10-19T06:16:50.056Z,22.07
2018-10-19T06:17:21.665Z,22.07
2018-10-19T06:17:53.266Z,22.07
2018-10-19T06:18:24.902Z,22.07
2018-10-19T06:18:56.514Z,22.06
2018-10-19T06:19:28.104Z,22.07
2018-10-19T06:19:59.690Z,22.07
2018-10-19T06:20:31.284Z,22.06
2018-10-19T06:21:02.934Z,22.07
2018-10-19T06:21:34.496Z,22.07
2018-10-19T06:22:06.098Z,22.07
2018-10-19T06:22:37.711Z,22.06
2018-10-19T06:23:09.384Z,22.07
2018-10-19T06:23:40.964Z,22.06
2018-10-19T06:24:12.570Z,22.06
2018-10-19T06:24:44.165Z,22.06
2018-10-19T06:25:15.746Z,22.05
2018-10-19T06:25:47.410Z,22.05
2018-10-19T06:26:19.011Z,22.05
2018-10-19T06:26:50.604Z,22.05
2018-10-19T06:27:22.200Z,22.05
2018-10-19T06:27:53.801Z,22.05
2018-10-19T06:28:25.432Z,22.05
2018-10-19T06:28:57.094Z,22.05
2018-10-19T06:29:28.689Z,22.06
2018-10-19T06:30:00.267Z,22.05
2018-10-19T06:30:31.871Z,22.06
2018-10-19T06:31:03.481Z,22.06
2018-10-19T06:31:35.087Z,22.06
2018-10-19T06:32:06.740Z,22.06
2018-10-19T06:32:38.310Z,22.03
2018-10-19T06:33:09.894Z,22.06
2018-10-19T06:33:41.565Z,22.05
2018-10-19T06:34:13.114Z,22.06
2018-10-19T06:34:44.719Z,22.07
2018-10-19T06:35:16.348Z,22.07
2018-10-19T06:35:47.929Z,22.06
2018-10-19T06:36:19.534Z,22.05
2018-10-19T06:36:51.127Z,22.06
2018-10-19T06:37:22.720Z,22.05
2018-10-19T06:37:54.301Z,22.04
2018-10-19T06:38:25.920Z,22.04
2018-10-19T06:38:57.536Z,22.06
2018-10-19T06:39:29.130Z,22.10
2018-10-19T06:40:00.730Z,22.14
2018-10-19T06:40:32.371Z,22.16
2018-10-19T06:41:04.031Z,22.20
2018-10-19T06:41:35.597Z,22.19
2018-10-19T06:42:07.202Z,22.19
2018-10-19T06:42:38.783Z,22.18
2018-10-19T06:43:10.372Z,22.18
2018-10-19T06:43:41.978Z,22.18
2018-10-19T06:44:13.655Z,22.17
2018-10-19T06:44:45.240Z,22.16
2018-10-19T06:45:16.832Z,22.13
2018-10-19T06:45:48.443Z,22.12
2018-10-19T06:46:20.054Z,22.11
2018-10-19T06:46:51.844Z,22.10
2018-10-19T06:47:23.376Z,22.09